createdAt,value
2019-02-25T00:00:55.047Z,62.50
2019-02-25T00:03:27.837Z,62.11
2019-02-25T00:06:00.290Z,62.43
2019-02-25T00:08:33.313Z,62.31
2019-02-25T00:11:06.448Z,61.92
2019-02-25T00:13:40.550Z,62.62
2019-02-25T00:16:15.590Z,62.36
2019-02-25T00:18:50.590Z,62.03
2019-02-25T00:21:25.086Z,62.15
2019-02-25T00:23:57.961Z,62.39
2019-02-25T00:26:32.198Z,62.35
2019-02-25T00:29:05.470Z,62.22
2019-02-25T00:31:38.283Z,62.53
2019-02-25T00:34:11.438Z,63.23
2019-02-25T00:36:43.983Z,63.76
2019-02-25T00:39:19.635Z,65.16
2019-02-25T00:41:53.039Z,65.16
2019-02-25T00:44:25.522Z,65.42
2019-02-25T00:46:58.336Z,65.27
2019-02-25T00:49:30.918Z,64.77
2019-02-25T00:52:04.142Z,64.30
2019-02-25T00:54:37.297Z,64.42
2019-02-25T00:57:09.824Z,64.55
2019-02-25T00:59:42.387Z,64.08
2019-02-25T01:02:15.055Z,63.54
2019-02-25T01:04:48.117Z,63.30
2019-02-25T01:07:20.607Z,63.64
2019-02-25T01:09:53.153Z,63.94
2019-02-25T01:12:25.730Z,62.63
2019-02-25T01:14:58.308Z,61.17
2019-02-25T01:17:31.343Z,60.87
2019-02-25T01:20:05.096Z,61.04
2019-02-25T01:22:38.134Z,61.16
2019-02-25T01:25:11.344Z,61.38
2019-02-25T01:27:44.532Z,61.76
2019-02-25T01:30:18.491Z,61.90
2019-02-25T01:32:51.075Z,61.82
2019-02-25T01:35:23.699Z,62.27
2019-02-25T01:37:56.622Z,61.86
2019-02-25T01:40:29.226Z,61.71
2019-02-25T01:43:01.690Z,62.23
2019-02-25T01:45:34.761Z,62.16
2019-02-25T01:48:08.275Z,62.19
2019-02-25T01:50:42.276Z,62.09
2019-02-25T01:53:15.935Z,59.76
2019-02-25T01:55:48.955Z,58.66
2019-02-25T01:58:23.320Z,58.56
2019-02-25T02:00:57.318Z,58.40
2019-02-25T02:03:29.682Z,58.40
2019-02-25T02:06:02.907Z,58.33
2019-02-25T02:08:37.001Z,58.08
2019-02-25T02:11:09.915Z,57.98
2019-02-25T02:13:42.394Z,57.66
2019-02-25T02:16:15.558Z,57.45
2019-02-25T02:18:48.827Z,57.45
2019-02-25T02:21:22.234Z,57.21
2019-02-25T02:23:54.994Z,58.74
2019-02-25T02:26:27.626Z,59.08
2019-02-25T02:29:00.178Z,58.08
2019-02-25T02:33:42.146Z,54.19
2019-02-25T02:36:14.687Z,54.68
2019-02-25T02:38:47.351Z,55.17
2019-02-25T02:41:20.329Z,53.61
2019-02-25T02:43:53.070Z,54.71
2019-02-25T02:47:26.718Z,57.05
2019-02-25T02:50:15.966Z,56.94
2019-02-25T02:52:48.699Z,57.39
2019-02-25T02:55:21.821Z,58.09
2019-02-25T02:57:54.665Z,59.06
2019-02-25T03:00:27.197Z,59.36
2019-02-25T03:02:59.997Z,59.25
2019-02-25T03:05:32.819Z,59.87
2019-02-25T03:08:05.521Z,59.91
2019-02-25T03:10:41.452Z,60.13
2019-02-25T03:13:14.199Z,60.36
2019-02-25T03:15:48.542Z,60.86
2019-02-25T03:18:21.382Z,61.30
2019-02-25T03:20:54.021Z,62.65
2019-02-25T03:23:26.520Z,62.80
2019-02-25T03:26:01.272Z,63.22
2019-02-25T03:28:33.735Z,63.49
2019-02-25T03:31:06.284Z,63.97
2019-02-25T03:33:39.024Z,65.22
2019-02-25T03:36:11.728Z,65.23
2019-02-25T03:38:44.276Z,65.49
2019-02-25T03:41:17.503Z,66.09
2019-02-25T03:43:50.009Z,66.21
2019-02-25T03:46:22.621Z,66.45
2019-02-25T03:48:56.578Z,67.69
2019-02-25T03:51:29.627Z,67.83
2019-02-25T03:54:02.130Z,68.18
2019-02-25T03:56:35.011Z,69.07
2019-02-25T03:59:07.460Z,69.24
2019-02-25T04:01:40.156Z,68.95
2019-02-25T04:04:16.418Z,68.97
2019-02-25T04:06:49.823Z,69.11
2019-02-25T04:09:22.412Z,68.53
2019-02-25T04:11:55.551Z,66.73
2019-02-25T04:14:28.090Z,65.42
2019-02-25T04:17:00.691Z,64.52
2019-02-25T04:19:33.523Z,63.20
2019-02-25T04:22:06.031Z,60.80
2019-02-25T04:24:38.599Z,59.44
2019-02-25T04:27:11.409Z,58.13
2019-02-25T04:29:43.998Z,57.92
2019-02-25T04:32:16.922Z,57.39
2019-02-25T04:34:53.473Z,56.12
2019-02-25T04:37:26.059Z,54.80
2019-02-25T04:39:58.647Z,53.78
2019-02-25T04:42:31.588Z,53.72
2019-02-25T04:45:09.089Z,55.43
2019-02-25T04:47:41.598Z,56.43
2019-02-25T04:50:16.601Z,56.91
2019-02-25T04:52:49.303Z,56.59
2019-02-25T04:55:21.899Z,55.77
2019-02-25T04:57:55.639Z,55.52
2019-02-25T05:00:29.665Z,53.98
2019-02-25T05:03:02.259Z,54.51
2019-02-25T05:05:35.670Z,55.36
2019-02-25T05:08:09.040Z,55.69
2019-02-25T05:10:43.306Z,56.53
2019-02-25T05:13:16.222Z,58.98
2019-02-25T05:15:49.377Z,59.85
2019-02-25T05:18:22.691Z,59.88
2019-02-25T05:20:56.130Z,59.80
2019-02-25T05:23:29.236Z,59.54
2019-02-25T05:26:01.990Z,58.97
2019-02-25T05:28:35.718Z,58.87
2019-02-25T05:31:08.416Z,58.79
2019-02-25T05:33:41.778Z,59.15
2019-02-25T05:36:15.410Z,61.10
2019-02-25T05:38:48.035Z,61.72
2019-02-25T05:41:20.515Z,62.10
2019-02-25T05:43:53.693Z,62.76
2019-02-25T05:46:26.089Z,63.32
2019-02-25T05:48:58.696Z,63.38
2019-02-25T05:51:31.446Z,63.94
2019-02-25T05:54:04.033Z,63.67
2019-02-25T05:56:37.412Z,63.52
2019-02-25T05:59:10.219Z,63.70
2019-02-25T06:01:42.817Z,63.92
2019-02-25T06:04:16.098Z,63.48
2019-02-25T06:06:48.982Z,63.58
2019-02-25T06:09:22.051Z,64.00
2019-02-25T06:11:54.510Z,64.56
2019-02-25T06:14:27.433Z,64.96
2019-02-25T06:17:00.014Z,64.99
2019-02-25T06:19:32.581Z,65.17
2019-02-25T06:22:06.742Z,65.80
2019-02-25T06:24:39.463Z,66.05
2019-02-25T06:27:12.882Z,66.59
2019-02-25T06:29:47.866Z,66.49
2019-02-25T06:32:21.447Z,66.62
2019-02-25T06:34:53.959Z,67.19
2019-02-25T06:37:26.383Z,68.32
2019-02-25T06:39:59.184Z,68.72
2019-02-25T06:42:31.963Z,69.03
2019-02-25T06:45:07.057Z,69.35
2019-02-25T06:47:39.586Z,69.37
2019-02-25T06:50:15.639Z,69.20
2019-02-25T06:52:48.849Z,69.15
2019-02-25T06:55:21.444Z,69.61
2019-02-25T06:57:54.526Z,70.26
2019-02-25T07:00:28.785Z,70.25
2019-02-25T07:03:01.674Z,70.40
2019-02-25T07:05:42.806Z,70.18
2019-02-25T07:08:24.278Z,69.92
2019-02-25T07:11:17.947Z,69.81
2019-02-25T07:13:59.610Z,69.63
2019-02-25T07:16:42.771Z,69.32
2019-02-25T07:19:31.787Z,68.89
2019-02-25T07:22:26.510Z,68.39
2019-02-25T07:25:07.880Z,68.32
2019-02-25T07:28:03.832Z,68.34
2019-02-25T07:30:55.890Z,68.15
2019-02-25T07:33:38.479Z,68.54
2019-02-25T07:36:24.371Z,68.83
2019-02-25T07:39:18.012Z,69.21
2019-02-25T07:42:03.900Z,69.96
2019-02-25T07:44:57.091Z,70.75
2019-02-25T07:47:51.895Z,70.36
2019-02-25T07:50:33.860Z,70.36
2019-02-25T07:53:15.682Z,70.37
2019-02-25T07:56:02.185Z,70.11
2019-02-25T07:58:54.114Z,68.03
2019-02-25T08:01:46.534Z,66.85
2019-02-25T08:04:27.967Z,66.14
2019-02-25T08:07:10.933Z,64.28
2019-02-25T08:10:00.641Z,60.94
2019-02-25T08:12:45.301Z,58.91
2019-02-25T08:15:33.910Z,57.99
2019-02-25T08:18:19.106Z,58.76
2019-02-25T08:21:10.576Z,57.42
2019-02-25T08:23:52.366Z,55.05
2019-02-25T08:26:42.039Z,53.46
2019-02-25T08:29:34.950Z,51.39
2019-02-25T08:32:27.808Z,48.85
2019-02-25T08:35:06.224Z,47.46
2019-02-25T08:38:07.379Z,48.30
2019-02-25T08:41:01.595Z,46.93
2019-02-25T08:43:46.047Z,45.45
2019-02-25T08:46:28.326Z,44.10
2019-02-25T08:49:07.839Z,44.36
2019-02-25T08:51:40.591Z,42.47
2019-02-25T08:54:15.335Z,43.08
2019-02-25T08:56:49.982Z,42.88
2019-02-25T08:59:23.653Z,41.55
2019-02-25T09:01:56.549Z,41.78
2019-02-25T09:04:30.623Z,41.22
2019-02-25T09:07:04.299Z,41.08
2019-02-25T09:09:38.926Z,41.24
2019-02-25T09:12:11.565Z,40.95
2019-02-25T09:14:44.315Z,40.68
2019-02-25T09:17:16.912Z,40.22
2019-02-25T09:19:50.352Z,40.08
2019-02-25T09:22:23.731Z,40.69
2019-02-25T09:24:57.778Z,40.42
2019-02-25T09:27:31.301Z,36.47
2019-02-25T09:30:08.204Z,34.20
2019-02-25T09:32:41.067Z,34.11
2019-02-25T09:35:15.881Z,31.31
2019-02-25T09:37:49.112Z,30.89
2019-02-25T09:40:24.888Z,29.85
2019-02-25T09:42:58.232Z,29.56
2019-02-25T09:45:33.191Z,29.12
2019-02-25T09:48:05.898Z,28.73
2019-02-25T09:50:38.363Z,27.82
2019-02-25T09:53:12.064Z,27.42
2019-02-25T09:55:44.584Z,27.44
2019-02-25T09:58:20.271Z,26.10
2019-02-25T10:00:53.384Z,26.54
2019-02-25T10:03:27.016Z,26.44
2019-02-25T10:05:59.990Z,26.42
2019-02-25T10:08:33.574Z,26.27
2019-02-25T10:11:07.658Z,25.02
2019-02-25T10:13:40.424Z,24.01
2019-02-25T10:16:16.249Z,24.71
2019-02-25T10:18:48.843Z,25.00
2019-02-25T10:21:22.027Z,24.71
2019-02-25T10:23:56.222Z,24.43
2019-02-25T10:26:28.905Z,23.98
2019-02-25T10:29:02.109Z,24.10
2019-02-25T10:31:38.135Z,23.41
2019-02-25T10:34:13.056Z,23.71
2019-02-25T10:36:48.219Z,23.92
2019-02-25T10:39:24.937Z,23.48
2019-02-25T10:42:01.609Z,24.09
2019-02-25T10:44:36.206Z,23.46
2019-02-25T10:47:10.937Z,23.99
2019-02-25T10:49:47.282Z,24.01
2019-02-25T10:52:20.258Z,22.96
2019-02-25T10:54:56.213Z,23.14
2019-02-25T10:57:31.427Z,23.11
2019-02-25T11:00:09.611Z,23.41
2019-02-25T11:02:46.840Z,23.32
2019-02-25T11:05:23.360Z,23.28
2019-02-25T11:08:03.257Z,22.88
2019-02-25T11:10:44.154Z,22.90
2019-02-25T11:13:25.441Z,22.79
2019-02-25T11:16:01.094Z,22.44
2019-02-25T11:18:34.928Z,22.09
2019-02-25T11:21:22.894Z,21.62
2019-02-25T11:23:59.001Z,21.72
2019-02-25T11:26:32.934Z,21.50
2019-02-25T11:29:08.202Z,21.37
2019-02-25T11:31:45.290Z,21.33
2019-02-25T11:34:20.628Z,20.47
2019-02-25T11:36:55.490Z,20.61
2019-02-25T11:39:30.754Z,20.78
2019-02-25T11:42:07.825Z,20.42
2019-02-25T11:44:46.577Z,20.54
2019-02-25T11:47:20.681Z,20.84
2019-02-25T11:49:57.519Z,20.32
2019-02-25T11:52:30.942Z,20.49
2019-02-25T11:55:04.150Z,20.63
2019-02-25T11:57:38.488Z,20.84
2019-02-25T12:00:20.327Z,20.89
2019-02-25T12:02:55.188Z,20.61
2019-02-25T12:05:29.029Z,20.59
2019-02-25T12:08:07.009Z,20.95
2019-02-25T12:10:40.917Z,21.22
2019-02-25T12:13:16.593Z,20.75
2019-02-25T12:15:51.313Z,20.77
2019-02-25T12:18:25.076Z,20.95
2019-02-25T12:21:08.790Z,20.60
2019-02-25T12:23:44.488Z,20.53
2019-02-25T12:26:17.860Z,20.46
2019-02-25T12:28:51.191Z,20.96
2019-02-25T12:31:25.119Z,20.81
2019-02-25T12:33:58.811Z,20.71
2019-02-25T12:36:34.561Z,20.86
2019-02-25T12:39:09.432Z,21.39
2019-02-25T12:41:44.846Z,21.55
2019-02-25T12:44:17.715Z,21.67
2019-02-25T12:46:51.288Z,21.31
2019-02-25T12:49:25.046Z,21.22
2019-02-25T12:51:57.678Z,21.35
2019-02-25T12:54:31.534Z,21.35
2019-02-25T12:57:10.367Z,21.32
2019-02-25T12:59:44.947Z,20.87
2019-02-25T13:02:20.141Z,20.79
2019-02-25T13:04:57.455Z,20.93
2019-02-25T13:07:32.050Z,20.77
2019-02-25T13:10:42.607Z,20.40
2019-02-25T13:13:15.043Z,20.25
2019-02-25T13:15:47.589Z,20.52
2019-02-25T13:18:20.416Z,20.62
2019-02-25T13:20:54.126Z,21.13
2019-02-25T13:23:28.330Z,21.23
2019-02-25T13:26:07.514Z,21.06
2019-02-25T13:28:42.060Z,21.25
2019-02-25T13:31:17.509Z,21.64
2019-02-25T13:33:50.009Z,21.28
2019-02-25T13:36:23.154Z,21.51
2019-02-25T13:38:55.771Z,21.41
2019-02-25T13:41:28.983Z,21.67
2019-02-25T13:44:01.531Z,21.10
2019-02-25T13:46:37.961Z,20.55
2019-02-25T13:49:14.086Z,20.12
2019-02-25T13:51:48.943Z,20.20
2019-02-25T13:54:23.539Z,20.62
2019-02-25T13:56:59.075Z,19.72
2019-02-25T13:59:40.504Z,19.86
2019-02-25T14:02:13.902Z,19.21
2019-02-25T14:04:47.965Z,18.94
2019-02-25T14:07:21.192Z,18.78
2019-02-25T14:10:03.360Z,18.54
2019-02-25T14:12:36.168Z,18.36
2019-02-25T14:15:12.848Z,18.43
2019-02-25T14:18:03.310Z,18.37
2019-02-25T14:20:38.016Z,18.12
2019-02-25T14:23:12.720Z,18.45
2019-02-25T14:25:48.291Z,18.13
2019-02-25T14:28:21.655Z,18.46
2019-02-25T14:30:56.307Z,18.82
2019-02-25T14:33:29.352Z,18.68
2019-02-25T14:36:02.562Z,18.47
2019-02-25T14:38:37.104Z,18.19
2019-02-25T14:41:13.717Z,18.90
2019-02-25T14:43:54.216Z,18.86
2019-02-25T14:46:29.188Z,19.33
2019-02-25T14:49:02.082Z,19.66
2019-02-25T14:51:35.354Z,19.38
2019-02-25T14:54:09.850Z,19.74
2019-02-25T14:56:44.959Z,20.14
2019-02-25T14:59:20.503Z,19.42
2019-02-25T15:01:56.866Z,19.61
2019-02-25T15:04:30.882Z,19.26
2019-02-25T15:07:06.901Z,19.21
2019-02-25T15:09:43.180Z,19.14
2019-02-25T15:12:20.776Z,19.04
2019-02-25T15:14:55.608Z,18.81
2019-02-25T15:17:32.003Z,18.59
2019-02-25T15:20:06.037Z,18.58
2019-02-25T15:22:43.443Z,18.51
2019-02-25T15:25:33.300Z,18.19
2019-02-25T15:28:11.190Z,18.35
2019-02-25T15:30:46.556Z,18.39
2019-02-25T15:33:20.180Z,18.61
2019-02-25T15:35:57.688Z,18.61
2019-02-25T15:38:33.134Z,18.54
2019-02-25T15:41:09.622Z,18.48
2019-02-25T15:43:44.718Z,18.82
2019-02-25T15:46:19.604Z,19.03
2019-02-25T15:48:57.443Z,19.14
2019-02-25T15:51:39.093Z,19.39
2019-02-25T15:54:14.760Z,19.34
2019-02-25T15:56:47.749Z,19.37
2019-02-25T15:59:21.398Z,19.45
2019-02-25T16:01:54.831Z,19.21
2019-02-25T16:04:31.598Z,20.33
2019-02-25T16:07:08.830Z,21.10
2019-02-25T16:09:43.213Z,21.46
2019-02-25T16:12:16.146Z,21.65
2019-02-25T16:14:51.529Z,21.83
2019-02-25T16:17:26.908Z,22.00
2019-02-25T16:20:01.921Z,22.03
2019-02-25T16:22:38.582Z,22.10
2019-02-25T16:25:16.384Z,22.08
2019-02-25T16:27:52.636Z,22.32
2019-02-25T16:30:30.870Z,22.57
2019-02-25T16:33:07.852Z,22.63
2019-02-25T16:35:51.779Z,22.92
2019-02-25T16:38:27.272Z,23.16
2019-02-25T16:41:06.386Z,23.24
2019-02-25T16:43:41.220Z,23.29
2019-02-25T16:46:18.450Z,23.36
2019-02-25T16:48:55.064Z,23.51
2019-02-25T16:51:35.163Z,23.66
2019-02-25T16:54:13.136Z,24.02
2019-02-25T16:56:48.227Z,24.53
2019-02-25T16:59:26.449Z,25.33
2019-02-25T17:02:00.110Z,26.80
2019-02-25T17:04:34.474Z,28.74
2019-02-25T17:07:07.693Z,29.97
2019-02-25T17:09:42.403Z,30.97
2019-02-25T17:12:17.448Z,31.72
2019-02-25T17:14:53.248Z,32.40
2019-02-25T17:17:27.724Z,32.96
2019-02-25T17:20:12.324Z,34.22
2019-02-25T17:22:45.818Z,35.10
2019-02-25T17:25:20.359Z,35.52
2019-02-25T17:27:54.355Z,35.91
2019-02-25T17:30:32.066Z,36.12
2019-02-25T17:33:10.086Z,36.42
2019-02-25T17:35:47.578Z,36.95
2019-02-25T17:38:24.218Z,37.43
2019-02-25T17:41:01.257Z,37.63
2019-02-25T17:43:39.114Z,38.26
2019-02-25T17:46:17.619Z,38.81
2019-02-25T17:48:50.309Z,38.89
2019-02-25T17:51:24.816Z,38.87
2019-02-25T17:53:59.307Z,39.06
2019-02-25T17:56:33.784Z,39.03
2019-02-25T17:59:09.717Z,39.29
2019-02-25T18:01:46.102Z,40.21
2019-02-25T18:04:38.987Z,40.44
2019-02-25T18:07:15.164Z,40.64
2019-02-25T18:09:49.969Z,40.96
2019-02-25T18:12:25.271Z,41.02
2019-02-25T18:15:00.927Z,41.03
2019-02-25T18:17:42.631Z,41.08
2019-02-25T18:20:17.241Z,41.41
2019-02-25T18:22:51.807Z,41.90
2019-02-25T18:25:26.795Z,41.84
2019-02-25T18:28:01.543Z,43.04
2019-02-25T18:30:37.743Z,42.74
2019-02-25T18:33:13.861Z,42.94
2019-02-25T18:35:47.997Z,43.02
2019-02-25T18:38:23.249Z,43.09
2019-02-25T18:41:00.387Z,43.66
2019-02-25T18:43:34.772Z,45.29
2019-02-25T18:46:33.311Z,46.20
2019-02-25T18:49:09.480Z,46.51
2019-02-25T18:51:48.597Z,47.03
2019-02-25T18:54:25.464Z,47.56
2019-02-25T18:56:59.594Z,47.50
2019-02-25T18:59:36.223Z,47.49
2019-02-25T19:02:12.812Z,47.71
2019-02-25T19:04:49.595Z,48.51
2019-02-25T19:07:25.119Z,48.63
2019-02-25T19:09:59.853Z,48.95
2019-02-25T19:12:33.392Z,50.49
2019-02-25T19:15:13.778Z,51.20
2019-02-25T19:17:52.140Z,51.36
2019-02-25T19:20:27.132Z,51.65
2019-02-25T19:23:02.771Z,52.85
2019-02-25T19:25:38.723Z,52.28
2019-02-25T19:28:16.606Z,53.24
2019-02-25T19:30:51.968Z,54.06
2019-02-25T19:33:26.129Z,54.99
2019-02-25T19:36:00.592Z,54.85
2019-02-25T19:38:43.611Z,54.23
2019-02-25T19:41:22.429Z,54.53
2019-02-25T19:44:03.342Z,54.82
2019-02-25T19:46:38.159Z,55.27
2019-02-25T19:49:12.036Z,56.87
2019-02-25T19:51:50.715Z,57.89
2019-02-25T19:54:26.741Z,57.62
2019-02-25T19:57:01.330Z,57.89
2019-02-25T19:59:35.615Z,58.48
2019-02-25T20:02:08.697Z,58.53
2019-02-25T20:04:45.394Z,58.38
2019-02-25T20:07:27.970Z,58.28
2019-02-25T20:10:03.192Z,58.33
2019-02-25T20:12:39.245Z,58.41
2019-02-25T20:15:25.075Z,59.02
2019-02-25T20:17:59.949Z,61.12
2019-02-25T20:20:47.214Z,60.48
2019-02-25T20:23:22.803Z,59.94
2019-02-25T20:25:57.885Z,60.02
2019-02-25T20:28:32.002Z,60.25
2019-02-25T20:31:10.105Z,60.81
2019-02-25T20:33:45.298Z,62.03
2019-02-25T20:36:24.079Z,63.54
2019-02-25T20:39:02.365Z,62.95
2019-02-25T20:41:35.028Z,62.89
2019-02-25T20:44:10.181Z,63.08
2019-02-25T20:46:48.659Z,63.21
2019-02-25T20:49:26.387Z,63.70
2019-02-25T20:52:04.225Z,64.39
2019-02-25T20:54:40.909Z,65.75
2019-02-25T20:57:18.642Z,66.23
2019-02-25T20:59:55.346Z,66.80
2019-02-25T21:02:31.350Z,67.09
2019-02-25T21:05:04.798Z,66.58
2019-02-25T21:07:38.163Z,66.83
2019-02-25T21:10:13.829Z,67.17
2019-02-25T21:12:46.776Z,67.08
2019-02-25T21:15:19.613Z,67.25
2019-02-25T21:17:54.983Z,67.34
2019-02-25T21:20:31.464Z,68.28
2019-02-25T21:23:05.954Z,68.94
2019-02-25T21:25:44.086Z,69.36
2019-02-25T21:28:17.855Z,69.97
2019-02-25T21:30:57.607Z,70.09
2019-02-25T21:33:31.301Z,70.75
2019-02-25T21:36:05.772Z,71.41
2019-02-25T21:38:39.991Z,72.28
2019-02-25T21:41:13.798Z,72.88
2019-02-25T21:43:51.758Z,72.01
2019-02-25T21:46:29.097Z,71.64
2019-02-25T21:49:06.601Z,71.70
2019-02-25T21:51:47.765Z,72.17
2019-02-25T21:54:22.158Z,72.31
2019-02-25T21:56:58.585Z,71.88
2019-02-25T21:59:34.961Z,72.29
2019-02-25T22:02:09.351Z,72.49
2019-02-25T22:04:43.056Z,73.25
2019-02-25T22:07:24.172Z,73.11
2019-02-25T22:09:59.336Z,72.69
2019-02-25T22:12:33.198Z,72.87
2019-02-25T22:15:10.832Z,73.10
2019-02-25T22:17:48.319Z,73.77
2019-02-25T22:20:25.315Z,74.33
2019-02-25T22:22:59.133Z,73.96
2019-02-25T22:25:34.210Z,73.98
2019-02-25T22:28:09.971Z,74.28
2019-02-25T22:30:45.259Z,75.17
2019-02-25T22:33:27.540Z,75.54
2019-02-25T22:36:01.168Z,74.58
2019-02-25T22:38:33.768Z,74.31
2019-02-25T22:41:06.482Z,74.45
2019-02-25T22:43:43.236Z,74.67
2019-02-25T22:46:16.517Z,75.33
2019-02-25T22:48:50.467Z,75.43
2019-02-25T22:51:25.874Z,75.58
2019-02-25T22:54:03.677Z,75.86
2019-02-25T22:56:39.346Z,76.52
2019-02-25T22:59:11.983Z,76.42
2019-02-25T23:01:46.590Z,76.52
2019-02-25T23:04:19.680Z,77.58
2019-02-25T23:06:56.709Z,77.74
2019-02-25T23:09:30.451Z,77.15
2019-02-25T23:12:04.338Z,77.72
2019-02-25T23:14:42.498Z,77.89
2019-02-25T23:17:18.394Z,78.66
2019-02-25T23:19:51.141Z,78.89
2019-02-25T23:22:24.178Z,78.94
2019-02-25T23:24:58.343Z,78.98
2019-02-25T23:27:32.238Z,78.98
2019-02-25T23:30:09.089Z,79.75
2019-02-25T23:32:43.116Z,80.45
2019-02-25T23:35:16.420Z,79.95
2019-02-25T23:37:51.510Z,79.96
2019-02-25T23:40:26.141Z,79.72
2019-02-25T23:42:58.732Z,80.17
2019-02-25T23:45:31.107Z,80.19
2019-02-25T23:48:06.365Z,80.57
2019-02-25T23:50:41.514Z,81.33
2019-02-25T23:53:14.346Z,80.83
2019-02-25T23:55:49.529Z,80.19
2019-02-25T23:58:24.094Z,79.73
